createdAt,value
2019-01-03T00:00:00.777Z,2.5
2019-01-03T00:05:01.223Z,2.6
2019-01-03T00:10:00.767Z,2.3
2019-01-03T00:15:00.901Z,2.0
2019-01-03T00:20:00.864Z,2.0
2019-01-03T00:25:00.909Z,1.6
2019-01-03T00:30:00.778Z,1.6
2019-01-03T00:35:01.563Z,1.9
2019-01-03T00:40:00.781Z,1.7
2019-01-03T00:45:00.906Z,1.8
2019-01-03T00:55:00.908Z,2.0
2019-01-03T01:00:00.778Z,1.7
2019-01-03T01:05:00.790Z,2.0
2019-01-03T01:10:00.788Z,1.9
2019-01-03T01:15:00.919Z,2.1
2019-01-03T01:20:00.791Z,2.1
2019-01-03T01:25:02.005Z,2.1
2019-01-03T01:30:00.910Z,2.2
2019-01-03T01:35:00.852Z,2.4
2019-01-03T01:40:00.816Z,2.0
2019-01-03T01:45:00.851Z,1.6
2019-01-03T01:50:00.858Z,1.4
2019-01-03T01:55:01.548Z,0.9
2019-01-03T02:00:03.422Z,0.7
2019-01-03T02:15:00.855Z,0.8
2019-01-03T02:20:00.831Z,0.8
2019-01-03T02:25:00.807Z,0.8
2019-01-03T02:30:00.830Z,0.6
2019-01-03T02:35:00.866Z,0.6
2019-01-03T02:40:00.931Z,0.6
2019-01-03T02:45:00.861Z,0.8
2019-01-03T02:50:00.818Z,0.8
2019-01-03T03:00:00.869Z,0.6
2019-01-03T03:10:00.932Z,0.4
2019-01-03T03:15:01.481Z,0.4
2019-01-03T03:20:00.835Z,0.5
2019-01-03T03:25:00.920Z,0.5
2019-01-03T03:30:00.888Z,0.6
2019-01-03T03:35:00.878Z,0.7
2019-01-03T03:40:00.821Z,0.6
2019-01-03T03:45:01.009Z,0.6
2019-01-03T03:50:00.905Z,0.8
2019-01-03T03:55:01.054Z,1.0
2019-01-03T04:00:00.815Z,1.0
2019-01-03T04:05:01.055Z,1.0
2019-01-03T04:15:00.948Z,0.8
2019-01-03T04:20:00.949Z,0.6
2019-01-03T04:25:01.154Z,0.4
2019-01-03T04:30:00.822Z,0.6
2019-01-03T04:35:00.828Z,0.4
2019-01-03T04:40:01.593Z,0.6
2019-01-03T04:45:05.895Z,0.6
2019-01-03T04:50:00.836Z,0.6
2019-01-03T04:55:00.893Z,0.2
2019-01-03T05:00:00.802Z,0.2
2019-01-03T05:10:01.633Z,0.4
2019-01-03T05:15:01.052Z,0.3
2019-01-03T05:20:00.906Z,0.9
2019-01-03T05:25:00.911Z,1.1
2019-01-03T05:30:02.482Z,1.3
2019-01-03T05:35:01.508Z,1.0
2019-01-03T05:40:00.907Z,1.2
2019-01-03T05:45:00.912Z,0.8
2019-01-03T05:50:00.910Z,0.8
2019-01-03T05:55:00.911Z,0.6
2019-01-03T06:00:00.859Z,0.8
2019-01-03T06:05:00.975Z,0.8
2019-01-03T06:10:05.868Z,1.0
2019-01-03T06:15:00.923Z,0.9
2019-01-03T06:25:00.913Z,1.1
2019-01-03T06:30:00.856Z,1.3
2019-01-03T06:35:05.872Z,1.0
2019-01-03T06:45:01.394Z,2.0
2019-01-03T06:50:00.856Z,2.5
2019-01-03T06:55:00.912Z,3.0
2019-01-03T07:00:00.865Z,4.3
2019-01-03T07:05:00.986Z,5.0
2019-01-03T07:10:05.883Z,5.1
2019-01-03T07:15:00.933Z,5.7
2019-01-03T07:20:02.117Z,5.9
2019-01-03T07:25:00.931Z,5.6
2019-01-03T07:30:00.865Z,5.0
2019-01-03T07:35:01.090Z,4.6
2019-01-03T07:40:02.499Z,4.0
2019-01-03T07:45:00.929Z,4.0
2019-01-03T07:50:00.872Z,3.7
2019-01-03T07:55:02.053Z,4.3
2019-01-03T08:00:00.884Z,4.9
2019-01-03T08:05:01.685Z,4.8
2019-01-03T08:10:00.872Z,5.6
2019-01-03T08:15:01.228Z,6.3
2019-01-03T08:20:00.879Z,6.5
2019-01-03T08:25:05.927Z,7.1
2019-01-03T08:30:01.407Z,7.8
2019-01-03T08:35:00.943Z,7.8
2019-01-03T08:40:00.947Z,8.5
2019-01-03T08:45:01.008Z,8.9
2019-01-03T08:50:00.874Z,8.8
2019-01-03T08:55:02.089Z,9.2
2019-01-03T09:00:05.886Z,8.8
2019-01-03T09:05:00.951Z,7.8
2019-01-03T09:10:01.350Z,6.9
2019-01-03T09:15:01.156Z,7.0
2019-01-03T09:20:00.965Z,7.3
2019-01-03T09:25:00.963Z,7.8
2019-01-03T09:30:00.899Z,8.5
2019-01-03T09:35:01.019Z,9.2
2019-01-03T09:40:00.889Z,9.2
2019-01-03T09:45:01.022Z,8.2
2019-01-03T09:50:00.980Z,7.6
2019-01-03T09:55:00.958Z,6.8
2019-01-03T10:00:05.968Z,6.5
2019-01-03T10:05:01.108Z,5.8
2019-01-03T10:10:00.888Z,5.6
2019-01-03T10:15:05.961Z,5.7
2019-01-03T10:20:01.962Z,5.0
2019-01-03T10:25:00.963Z,4.7
2019-01-03T10:30:00.902Z,5.8
2019-01-03T10:35:00.966Z,6.4
2019-01-03T10:40:05.914Z,6.7
2019-01-03T10:45:01.055Z,7.9
2019-01-03T10:50:00.902Z,8.5
2019-01-03T10:55:00.902Z,7.6
2019-01-03T11:00:00.901Z,7.1
2019-01-03T11:05:00.963Z,6.7
2019-01-03T11:10:03.807Z,6.1
2019-01-03T11:15:00.974Z,5.6
2019-01-03T11:20:00.910Z,5.4
2019-01-03T11:25:01.009Z,4.8
2019-01-03T11:30:00.873Z,4.6
2019-01-03T11:35:00.979Z,4.4
2019-01-03T11:40:00.923Z,4.5
2019-01-03T11:45:00.976Z,4.3
2019-01-03T11:50:00.912Z,4.1
2019-01-03T11:55:01.012Z,3.7
2019-01-03T12:00:00.929Z,3.6
2019-01-03T12:05:03.528Z,3.6
2019-01-03T12:10:01.120Z,3.6
2019-01-03T12:15:00.983Z,3.6
2019-01-03T12:20:00.990Z,3.6
2019-01-03T12:30:06.002Z,3.0
2019-01-03T12:35:00.999Z,2.4
2019-01-03T12:40:00.933Z,2.7
2019-01-03T12:45:00.995Z,2.7
2019-01-03T12:55:01.064Z,2.3
2019-01-03T13:00:06.338Z,2.5
2019-01-03T13:05:01.012Z,2.4
2019-01-03T13:15:01.005Z,2.6
2019-01-03T13:20:00.976Z,4.2
2019-01-03T13:25:06.261Z,6.7
2019-01-03T13:30:05.956Z,7.5
2019-01-03T13:35:01.016Z,8.1
2019-01-03T13:40:00.947Z,8.4
2019-01-03T13:45:01.004Z,7.8
2019-01-03T13:50:01.033Z,7.3
2019-01-03T13:55:01.451Z,7.6
2019-01-03T14:00:01.036Z,8.9
2019-01-03T14:05:01.070Z,10.2
2019-01-03T14:10:00.940Z,10.3
2019-01-03T14:15:01.007Z,9.2
2019-01-03T14:20:01.317Z,9.3
2019-01-03T14:25:02.335Z,8.4
2019-01-03T14:30:00.946Z,7.2
2019-01-03T14:35:01.078Z,7.4
2019-01-03T14:40:00.958Z,7.9
2019-01-03T14:45:01.018Z,7.5
2019-01-03T14:50:00.954Z,7.0
2019-01-03T14:55:01.020Z,6.8
2019-01-03T15:00:00.967Z,6.2
2019-01-03T15:05:01.087Z,5.5
2019-01-03T15:10:00.949Z,5.2
2019-01-03T15:15:01.092Z,5.4
2019-01-03T15:20:05.979Z,6.2
2019-01-03T15:25:05.968Z,6.6
2019-01-03T15:30:05.970Z,6.9
2019-01-03T15:35:01.099Z,7.1
2019-01-03T15:45:01.554Z,7.4
2019-01-03T15:50:00.971Z,7.0
2019-01-03T15:55:00.966Z,6.6
2019-01-03T16:00:00.978Z,6.5
2019-01-03T16:05:01.105Z,6.1
2019-01-03T16:10:01.001Z,5.5
2019-01-03T16:15:06.052Z,5.8
2019-01-03T16:20:01.003Z,6.0
2019-01-03T16:25:00.977Z,6.5
2019-01-03T16:30:00.974Z,6.1
2019-01-03T16:35:01.109Z,6.1
2019-01-03T16:40:00.977Z,5.8
2019-01-03T16:45:05.985Z,6.0
2019-01-03T16:50:05.983Z,5.9
2019-01-03T16:55:00.975Z,6.6
2019-01-03T17:00:00.992Z,6.8
2019-01-03T17:05:01.110Z,7.2
2019-01-03T17:10:01.332Z,7.3
2019-01-03T17:15:01.822Z,6.4
2019-01-03T17:20:00.987Z,6.4
2019-01-03T17:25:01.045Z,6.6
2019-01-03T17:30:00.986Z,6.2
2019-01-03T17:35:01.049Z,6.0
2019-01-03T17:40:00.987Z,6.7
2019-01-03T17:45:00.994Z,6.7
2019-01-03T17:50:01.052Z,5.9
2019-01-03T17:55:01.483Z,6.3
2019-01-03T18:00:00.997Z,6.6
2019-01-03T18:05:01.062Z,6.3
2019-01-03T18:10:01.005Z,6.6
2019-01-03T18:15:06.139Z,7.4
2019-01-03T18:20:07.036Z,8.4
2019-01-03T18:25:01.069Z,9.2
2019-01-03T18:30:01.007Z,10.4
2019-01-03T18:35:01.010Z,11.1
2019-01-03T18:40:01.076Z,11.2
2019-01-03T18:45:01.107Z,10.8
2019-01-03T18:50:01.008Z,9.8
2019-01-03T18:55:01.364Z,9.0
2019-01-03T19:00:01.196Z,8.3
2019-01-03T19:05:01.587Z,7.8
2019-01-03T19:10:01.025Z,6.8
2019-01-03T19:15:01.143Z,6.8
2019-01-03T19:20:01.083Z,7.0
2019-01-03T19:25:01.110Z,6.8
2019-01-03T19:30:06.019Z,6.4
2019-01-03T19:40:01.106Z,6.4
2019-01-03T19:45:01.147Z,6.2
2019-01-03T19:50:02.545Z,6.2
2019-01-03T20:00:01.232Z,6.6
2019-01-03T20:05:06.097Z,6.2
2019-01-03T20:10:06.104Z,6.2
2019-01-03T20:15:06.376Z,5.9
2019-01-03T20:25:01.131Z,7.2
2019-01-03T20:30:01.067Z,8.0
2019-01-03T20:35:01.194Z,8.3
2019-01-03T20:40:01.064Z,9.3
2019-01-03T20:45:01.166Z,9.8
2019-01-03T20:50:01.037Z,9.2
2019-01-03T20:55:01.112Z,8.6
2019-01-03T21:00:01.149Z,7.3
2019-01-03T21:05:01.210Z,6.6
2019-01-03T21:10:01.088Z,6.4
2019-01-03T21:15:01.194Z,6.5
2019-01-03T21:20:06.067Z,6.3
2019-01-03T21:25:01.093Z,7.1
2019-01-03T21:30:01.055Z,6.7
2019-01-03T21:35:01.093Z,6.2
2019-01-03T21:40:01.087Z,5.7
2019-01-03T21:45:06.091Z,5.8
2019-01-03T21:50:02.557Z,5.9
2019-01-03T21:55:01.062Z,5.9
2019-01-03T22:00:01.057Z,6.1
2019-01-03T22:05:01.063Z,5.7
2019-01-03T22:10:01.107Z,5.6
2019-01-03T22:15:01.138Z,5.3
2019-01-03T22:20:01.067Z,4.8
2019-01-03T22:25:01.070Z,4.4
2019-01-03T22:30:01.067Z,4.1
2019-01-03T22:35:01.082Z,4.1
2019-01-03T22:40:06.073Z,4.2
2019-01-03T22:45:01.879Z,5.0
2019-01-03T22:50:01.113Z,4.7
2019-01-03T22:55:01.137Z,5.5
2019-01-03T23:00:01.134Z,5.1
2019-01-03T23:05:01.079Z,4.8
2019-01-03T23:10:01.084Z,4.6
2019-01-03T23:15:01.086Z,4.9
2019-01-03T23:20:01.055Z,4.5
2019-01-03T23:25:01.089Z,4.5
2019-01-03T23:30:01.111Z,4.7
2019-01-03T23:35:01.127Z,4.4
2019-01-03T23:40:01.125Z,3.6
2019-01-03T23:45:01.128Z,3.2
2019-01-03T23:50:01.143Z,3.2
2019-01-03T23:55:01.196Z,2.9
